TimeMDT,TemperatureF,Dew PointF,Humidity,Sea Level PressureIn,VisibilityMPH,Wind Direction,Wind SpeedMPH,Gust SpeedMPH,PrecipitationIn,Events,Conditions,WindDirDegrees,DateUTC
12:12 AM,73.4,55.4,53,30.06,10.0,WSW,5.8,19.6,N/A,Thunderstorm,Clear,250,2013-09-07 06:12:00
12:27 AM,71.6,55.4,57,30.06,10.0,WNW,5.8,-,N/A,,Clear,290,2013-09-07 06:27:00
12:53 AM,71.1,55.9,59,29.88,10.0,West,9.2,-,N/A,,Clear,270,2013-09-07 06:53:00
1:53 AM,66.9,57.0,70,29.89,10.0,ENE,8.1,-,N/A,,Clear,70,2013-09-07 07:53:00
2:53 AM,64.0,57.9,80,29.88,10.0,Calm,Calm,-,N/A,,Clear,0,2013-09-07 08:53:00
3:53 AM,64.9,59.0,81,29.88,10.0,Calm,Calm,-,N/A,,Clear,0,2013-09-07 09:53:00
4:53 AM,64.0,57.9,80,29.90,10.0,NW,3.5,-,N/A,,Clear,320,2013-09-07 10:53:00
5:53 AM,64.0,60.1,87,29.91,10.0,Calm,Calm,-,N/A,,Clear,0,2013-09-07 11:53:00
6:53 AM,63.0,59.0,87,29.97,10.0,NE,5.8,-,N/A,,Clear,50,2013-09-07 12:53:00
7:53 AM,68.0,60.1,76,29.99,10.0,Calm,Calm,-,N/A,,Clear,0,2013-09-07 13:53:00
8:53 AM,73.9,60.1,62,29.96,10.0,SE,4.6,-,N/A,,Clear,140,2013-09-07 14:53:00
9:53 AM,81.0,57.9,45,29.94,10.0,SE,6.9,-,N/A,,Clear,140,2013-09-07 15:53:00
10:53 AM,82.9,57.0,41,29.96,10.0,SE,6.9,-,N/A,,Clear,130,2013-09-07 16:53:00
11:53 AM,86.0,55.0,35,29.95,10.0,SE,4.6,-,N/A,,Clear,130,2013-09-07 17:53:00
12:53 PM,87.1,55.9,35,29.92,10.0,Calm,Calm,-,N/A,,Clear,0,2013-09-07 18:53:00
1:53 PM,91.0,54.0,28,29.90,10.0,Variable,5.8,-,N/A,,Clear,0,2013-09-07 19:53:00
2:53 PM,93.0,54.0,27,29.87,10.0,Variable,5.8,-,N/A,,Clear,0,2013-09-07 20:53:00
3:53 PM,93.0,55.9,29,29.85,10.0,SSE,8.1,-,N/A,,Clear,150,2013-09-07 21:53:00
4:53 PM,93.0,55.9,29,29.83,10.0,ESE,6.9,-,N/A,,Clear,120,2013-09-07 22:53:00
5:53 PM,89.1,55.0,31,29.84,10.0,SE,4.6,-,N/A,,Clear,140,2013-09-07 23:53:00
6:53 PM,84.9,57.9,40,29.84,10.0,ENE,4.6,-,N/A,,Clear,70,2013-09-08 00:53:00
7:53 PM,79.0,59.0,50,29.84,10.0,ENE,4.6,-,N/A,,Clear,60,2013-09-08 01:53:00
8:53 PM,78.1,60.1,54,29.83,10.0,WNW,6.9,-,N/A,,Clear,290,2013-09-08 02:53:00
9:53 PM,75.0,54.0,48,29.83,10.0,NNW,9.2,-,N/A,,Clear,340,2013-09-08 03:53:00
10:53 PM,75.0,51.1,43,29.82,10.0,Calm,Calm,-,N/A,,Clear,0,2013-09-08 04:53:00
11:53 PM,69.1,55.9,63,29.81,10.0,ENE,5.8,-,N/A,,Clear,70,2013-09-08 05:53:00